Barnstable, Massachusetts
Current Conditions -  °F | °C
As of 4:56 PM on Friday 24 Oct 2014 (Local Time) from KHYA Reporting Station
Light Rain Light Rain  
Wind Chill: 52°   Ceiling: 400
Heat Index: 52°   Visibility: 2mi
Dew Point: 49°   Wind: 7mph
Humidity: 89%   Direction: 320°NW
Pressure: 29.67"   Gusts: NA
Location:  41.7°N, 70.3°W
Report Text: KHYA 242056Z 32006KT 2SM -RA BR BKN004 OVC010 11/09 A2967 RMK AO2 SLP049 P0002 60002 T01110094 51007
Loading
Personal Weather Stations






























Interactive Weather Map
Tropical Storm Tracking
New forecast layout! Learn more

10-Day Weather Forecast

Advertisements
Track Severe Weather on mobile